createdAt,value
2023-04-18T00:00:31.220Z,10.22
2023-04-18T00:02:59.187Z,10.19
2023-04-18T00:05:27.972Z,10.15
2023-04-18T00:07:55.253Z,10.19
2023-04-18T00:10:22.549Z,10.13
2023-04-18T00:12:49.446Z,10.01
2023-04-18T00:15:16.402Z,10.09
2023-04-18T00:17:43.610Z,10.16
2023-04-18T00:20:11.334Z,10.10
2023-04-18T00:22:42.641Z,10.18
2023-04-18T00:25:11.154Z,10.29
2023-04-18T00:27:39.146Z,10.43
2023-04-18T00:30:06.881Z,10.21
2023-04-18T00:32:39.457Z,10.45
2023-04-18T00:35:06.795Z,10.49
2023-04-18T00:37:34.093Z,10.30
2023-04-18T00:40:01.062Z,10.26
2023-04-18T00:42:29.477Z,10.36
2023-04-18T00:44:56.413Z,10.39
2023-04-18T00:47:23.541Z,10.38
2023-04-18T00:49:50.625Z,10.43
2023-04-18T00:52:18.851Z,10.45
2023-04-18T00:54:47.363Z,10.36
2023-04-18T00:57:14.636Z,10.19
2023-04-18T00:59:42.412Z,10.27
2023-04-18T01:02:09.411Z,10.34
2023-04-18T01:04:37.361Z,10.38
2023-04-18T01:07:04.831Z,10.47
2023-04-18T01:09:31.834Z,10.53
2023-04-18T01:11:58.772Z,10.69
2023-04-18T01:14:25.828Z,10.68
2023-04-18T01:16:53.285Z,10.71
2023-04-18T01:19:20.173Z,10.64
2023-04-18T01:21:47.347Z,10.58
2023-04-18T01:24:16.171Z,10.43
2023-04-18T01:26:47.767Z,10.47
2023-04-18T01:29:15.337Z,10.44
2023-04-18T01:31:42.322Z,10.43
2023-04-18T01:34:09.598Z,10.36
2023-04-18T01:36:39.070Z,10.39
2023-04-18T01:39:07.147Z,10.36
2023-04-18T01:41:34.167Z,10.37
2023-04-18T01:44:01.679Z,10.27
2023-04-18T01:46:29.083Z,10.41
2023-04-18T01:48:57.273Z,10.38
2023-04-18T01:51:24.234Z,10.29
2023-04-18T01:53:54.313Z,10.23
2023-04-18T01:56:21.313Z,10.11
2023-04-18T01:58:48.284Z,10.10
2023-04-18T02:01:15.413Z,10.14
2023-04-18T02:03:42.542Z,10.04
2023-04-18T02:06:10.173Z,10.09
2023-04-18T02:08:37.178Z,10.07
2023-04-18T02:11:06.661Z,10.09
2023-04-18T02:13:33.698Z,10.14
2023-04-18T02:16:00.916Z,10.17
2023-04-18T02:18:47.781Z,10.05
2023-04-18T02:21:14.607Z,9.91
2023-04-18T02:23:41.601Z,9.85
2023-04-18T02:26:08.542Z,9.62
2023-04-18T02:28:38.964Z,9.56
2023-04-18T02:31:06.431Z,9.55
2023-04-18T02:33:35.001Z,9.63
2023-04-18T02:36:01.953Z,9.64
2023-04-18T02:38:28.896Z,9.89
2023-04-18T02:40:56.139Z,9.94
2023-04-18T02:43:23.231Z,9.93
2023-04-18T02:45:50.717Z,9.91
2023-04-18T02:48:17.807Z,9.92
2023-04-18T02:50:46.059Z,9.92
2023-04-18T02:53:13.440Z,9.79
2023-04-18T02:55:52.308Z,9.75
2023-04-18T02:58:21.225Z,9.92
2023-04-18T03:01:06.858Z,9.99
2023-04-18T03:04:03.311Z,9.88
2023-04-18T03:06:40.285Z,9.94
2023-04-18T03:09:07.276Z,10.04
2023-04-18T03:11:37.338Z,9.98
2023-04-18T03:14:05.241Z,10.00
2023-04-18T03:16:48.966Z,9.94
2023-04-18T03:19:21.596Z,9.95
2023-04-18T03:21:49.879Z,9.68
2023-04-18T03:24:17.300Z,9.93
2023-04-18T03:26:48.740Z,9.81
2023-04-18T03:29:18.109Z,9.76
2023-04-18T03:31:46.725Z,9.63
2023-04-18T03:34:13.878Z,9.70
2023-04-18T03:36:41.290Z,9.70
2023-04-18T03:39:08.966Z,9.71
2023-04-18T03:41:35.970Z,9.57
2023-04-18T03:44:03.998Z,10.00
2023-04-18T03:46:35.157Z,10.19
2023-04-18T03:49:03.271Z,10.25
2023-04-18T03:51:41.724Z,10.35
2023-04-18T03:54:08.822Z,10.32
2023-04-18T03:56:36.115Z,10.42
2023-04-18T03:59:03.133Z,10.48
2023-04-18T04:01:30.791Z,10.39
2023-04-18T04:03:57.858Z,10.42
2023-04-18T04:06:26.172Z,10.55
2023-04-18T04:08:53.365Z,10.55
2023-04-18T04:11:24.348Z,10.49
2023-04-18T04:13:51.723Z,10.55
2023-04-18T04:16:23.117Z,10.54
2023-04-18T04:18:52.429Z,10.46
2023-04-18T04:21:24.081Z,10.53
2023-04-18T04:23:53.178Z,10.65
2023-04-18T04:26:35.696Z,10.75
2023-04-18T04:29:13.906Z,10.65
2023-04-18T04:31:42.648Z,10.73
2023-04-18T04:34:09.606Z,10.89
2023-04-18T04:36:36.732Z,10.83
2023-04-18T04:39:06.693Z,10.87
2023-04-18T04:41:47.228Z,10.94
2023-04-18T04:44:17.734Z,10.99
2023-04-18T04:46:44.977Z,11.00
2023-04-18T04:49:18.889Z,11.02
2023-04-18T04:51:45.815Z,11.08
2023-04-18T04:54:13.138Z,11.10
2023-04-18T04:56:40.955Z,11.21
2023-04-18T04:59:07.990Z,11.19
2023-04-18T05:01:39.635Z,11.23
2023-04-18T05:04:06.826Z,11.23
2023-04-18T05:06:34.012Z,11.00
2023-04-18T05:09:01.213Z,10.91
2023-04-18T05:11:28.386Z,10.86
2023-04-18T05:13:55.476Z,10.98
2023-04-18T05:16:22.659Z,11.05
2023-04-18T05:18:49.643Z,11.07
2023-04-18T05:21:16.676Z,10.99
2023-04-18T05:23:43.613Z,10.98
2023-04-18T05:26:10.698Z,10.79
2023-04-18T05:28:37.738Z,11.20
2023-04-18T05:31:04.780Z,10.98
2023-04-18T05:33:31.895Z,11.11
2023-04-18T05:35:59.213Z,10.97
2023-04-18T05:38:26.359Z,11.15
2023-04-18T05:40:56.043Z,11.20
2023-04-18T05:43:23.548Z,11.19
2023-04-18T05:45:52.516Z,11.15
2023-04-18T05:48:19.801Z,11.27
2023-04-18T05:50:46.895Z,11.19
2023-04-18T05:53:13.879Z,11.19
2023-04-18T05:55:41.008Z,11.29
2023-04-18T05:58:08.097Z,11.41
2023-04-18T06:00:35.229Z,11.52
2023-04-18T06:03:02.835Z,11.52
2023-04-18T06:05:30.623Z,11.54
2023-04-18T06:07:57.923Z,11.45
2023-04-18T06:10:24.917Z,11.29
2023-04-18T06:12:51.971Z,11.19
2023-04-18T06:15:19.129Z,11.18
2023-04-18T06:17:46.267Z,11.02
2023-04-18T06:20:13.593Z,11.12
2023-04-18T06:26:37.822Z,11.64
2023-04-18T06:29:04.773Z,11.90
2023-04-18T06:31:31.775Z,11.96
2023-04-18T06:33:58.833Z,12.08
2023-04-18T06:36:27.579Z,12.22
2023-04-18T06:38:54.702Z,12.27
2023-04-18T06:41:21.633Z,12.29
2023-04-18T06:44:02.224Z,12.40
2023-04-18T06:46:31.394Z,12.39
2023-04-18T06:48:58.755Z,12.49
2023-04-18T06:51:25.910Z,12.66
2023-04-18T06:53:53.758Z,12.69
2023-04-18T06:56:21.429Z,12.79
2023-04-18T06:58:48.959Z,12.74
2023-04-18T07:01:16.154Z,12.38
2023-04-18T07:03:43.277Z,12.11
2023-04-18T07:06:11.113Z,12.07
2023-04-18T07:08:38.596Z,12.23
2023-04-18T07:11:06.655Z,12.12
2023-04-18T07:13:33.689Z,12.23
2023-04-18T07:16:01.591Z,11.96
2023-04-18T07:18:37.433Z,12.28
2023-04-18T07:21:09.127Z,12.31
2023-04-18T07:23:36.668Z,12.33
2023-04-18T07:26:05.785Z,12.38
2023-04-18T07:28:33.258Z,12.63
2023-04-18T07:31:01.302Z,12.65
2023-04-18T07:33:31.770Z,12.70
2023-04-18T07:36:01.748Z,12.63
2023-04-18T07:38:31.470Z,12.68
2023-04-18T07:41:02.179Z,12.47
2023-04-18T07:43:29.405Z,12.80
2023-04-18T07:45:56.538Z,12.96
2023-04-18T07:48:25.293Z,13.12
2023-04-18T07:50:53.404Z,13.13
2023-04-18T07:53:30.173Z,13.10
2023-04-18T07:56:08.586Z,13.40
2023-04-18T07:58:36.250Z,13.07
2023-04-18T08:01:03.369Z,12.93
2023-04-18T08:03:30.569Z,12.84
2023-04-18T08:05:57.696Z,12.87
2023-04-18T08:08:24.638Z,13.05
2023-04-18T08:10:51.609Z,13.22
2023-04-18T08:13:18.679Z,13.22
2023-04-18T08:15:46.616Z,13.47
2023-04-18T08:18:13.658Z,13.80
2023-04-18T08:20:41.032Z,14.05
2023-04-18T08:23:11.299Z,14.73
2023-04-18T08:25:39.987Z,14.75
2023-04-18T08:28:07.271Z,14.69
2023-04-18T08:30:34.524Z,14.73
2023-04-18T08:33:01.662Z,14.91
2023-04-18T08:35:28.918Z,14.86
2023-04-18T08:38:14.773Z,15.34
2023-04-18T08:40:43.574Z,15.50
2023-04-18T08:43:14.127Z,15.69
2023-04-18T08:45:45.843Z,15.61
2023-04-18T08:48:14.168Z,15.32
2023-04-18T08:50:42.706Z,15.21
2023-04-18T08:53:10.600Z,15.50
2023-04-18T08:55:37.759Z,15.74
2023-04-18T08:58:06.931Z,15.99
2023-04-18T09:00:34.313Z,16.08
2023-04-18T09:03:03.019Z,16.09
2023-04-18T09:05:30.305Z,16.22
2023-04-18T09:07:57.531Z,16.15
2023-04-18T09:10:28.714Z,16.08
2023-04-18T09:12:57.840Z,15.93
2023-04-18T09:15:29.481Z,15.81
2023-04-18T09:17:59.271Z,15.78
2023-04-18T09:20:41.553Z,15.45
2023-04-18T09:23:11.517Z,15.36
2023-04-18T09:25:44.438Z,15.51
2023-04-18T09:28:33.469Z,15.76
2023-04-18T09:31:04.459Z,15.89
2023-04-18T09:33:37.193Z,16.14
2023-04-18T09:36:19.308Z,15.92
2023-04-18T09:38:48.406Z,16.09
2023-04-18T09:41:19.944Z,16.00
2023-04-18T09:43:49.302Z,16.12
2023-04-18T09:46:17.900Z,16.32
2023-04-18T09:48:45.107Z,16.21
2023-04-18T09:51:15.749Z,16.07
2023-04-18T09:53:44.998Z,16.01
2023-04-18T09:56:24.560Z,16.02
2023-04-18T09:58:57.231Z,16.12
2023-04-18T10:01:28.504Z,16.09
2023-04-18T10:03:57.348Z,16.02
2023-04-18T10:06:27.418Z,15.88
2023-04-18T10:08:55.142Z,15.82
2023-04-18T10:11:24.296Z,15.83
2023-04-18T10:13:56.000Z,15.78
2023-04-18T10:16:23.871Z,15.65
2023-04-18T10:18:51.581Z,15.17
2023-04-18T10:21:18.472Z,15.22
2023-04-18T10:23:48.877Z,15.10
2023-04-18T10:26:16.416Z,14.91
2023-04-18T10:28:57.934Z,14.98
2023-04-18T10:31:27.225Z,15.04
2023-04-18T10:36:30.266Z,15.03
2023-04-18T10:39:05.127Z,15.05
2023-04-18T10:41:33.842Z,15.10
2023-04-18T10:44:11.497Z,15.53
2023-04-18T10:46:52.075Z,15.22
2023-04-18T10:49:20.165Z,15.78
2023-04-18T10:51:49.722Z,15.63
2023-04-18T10:54:22.621Z,15.76
2023-04-18T10:56:56.967Z,15.43
2023-04-18T10:59:26.713Z,15.27
2023-04-18T11:01:57.431Z,15.16
2023-04-18T11:04:25.810Z,15.11
2023-04-18T11:06:58.493Z,14.98
2023-04-18T11:09:25.751Z,14.46
2023-04-18T11:12:07.156Z,13.49
2023-04-18T11:14:45.634Z,13.83
2023-04-18T11:17:20.970Z,13.75
2023-04-18T11:19:48.666Z,14.18
2023-04-18T11:22:17.043Z,14.40
2023-04-18T11:24:44.798Z,14.69
2023-04-18T11:27:12.763Z,14.97
2023-04-18T11:29:39.756Z,15.34
2023-04-18T11:32:08.323Z,15.09
2023-04-18T11:34:38.407Z,15.02
2023-04-18T11:37:08.679Z,15.19
2023-04-18T11:39:41.190Z,15.32
2023-04-18T11:42:08.985Z,15.29
2023-04-18T11:44:39.720Z,15.47
2023-04-18T11:47:23.692Z,15.87
2023-04-18T11:50:01.012Z,16.09
2023-04-18T11:52:34.059Z,16.16
2023-04-18T11:55:25.007Z,15.88
2023-04-18T11:58:00.394Z,15.82
2023-04-18T12:00:31.783Z,15.49
2023-04-18T12:03:00.004Z,15.26
2023-04-18T12:05:29.394Z,15.31
2023-04-18T12:08:05.106Z,15.42
2023-04-18T12:10:32.472Z,15.50
2023-04-18T12:13:00.172Z,15.23
2023-04-18T12:15:29.273Z,15.65
2023-04-18T12:18:01.570Z,15.89
2023-04-18T12:20:52.622Z,15.91
2023-04-18T12:23:37.287Z,15.83
2023-04-18T12:26:14.580Z,16.12
2023-04-18T12:28:45.703Z,16.17
2023-04-18T12:31:13.057Z,16.39
2023-04-18T12:33:40.276Z,16.69
2023-04-18T12:36:11.197Z,16.80
2023-04-18T12:38:38.162Z,16.89
2023-04-18T12:41:05.660Z,16.76
2023-04-18T12:43:32.641Z,16.92
2023-04-18T12:46:00.058Z,16.96
2023-04-18T12:48:27.167Z,16.90
2023-04-18T12:50:54.336Z,16.97
2023-04-18T12:53:21.361Z,16.95
2023-04-18T12:55:48.278Z,16.84
2023-04-18T12:58:18.575Z,16.94
2023-04-18T13:00:45.989Z,17.08
2023-04-18T13:03:13.595Z,16.95
2023-04-18T13:05:41.156Z,16.67
2023-04-18T13:08:17.016Z,16.67
2023-04-18T13:10:48.047Z,16.46
2023-04-18T13:13:15.088Z,16.58
2023-04-18T13:15:42.580Z,16.57
2023-04-18T13:18:09.634Z,16.66
2023-04-18T13:20:36.763Z,16.57
2023-04-18T13:23:03.952Z,16.50
2023-04-18T13:25:31.388Z,16.49
2023-04-18T13:27:58.644Z,16.49
2023-04-18T13:30:26.060Z,16.41
2023-04-18T13:32:53.137Z,16.48
2023-04-18T13:35:20.282Z,16.51
2023-04-18T13:37:47.362Z,16.23
2023-04-18T13:46:36.663Z,15.89
2023-04-18T13:49:03.677Z,15.88
2023-04-18T13:51:31.137Z,15.74
2023-04-18T13:54:00.280Z,15.57
2023-04-18T13:56:28.215Z,15.41
2023-04-18T13:58:55.749Z,15.46
2023-04-18T14:01:22.812Z,15.74
2023-04-18T14:03:50.182Z,15.51
2023-04-18T14:06:17.494Z,15.45
2023-04-18T14:08:44.476Z,15.34
2023-04-18T14:11:11.452Z,14.95
2023-04-18T14:13:38.608Z,14.62
2023-04-18T14:16:06.736Z,14.79
2023-04-18T14:18:33.780Z,14.69
2023-04-18T14:21:01.170Z,14.76
2023-04-18T14:23:28.153Z,14.80
2023-04-18T14:25:55.652Z,14.67
2023-04-18T14:28:24.958Z,14.73
2023-04-18T14:30:52.210Z,14.78
2023-04-18T14:33:19.309Z,14.76
2023-04-18T14:35:46.272Z,14.87
2023-04-18T14:38:13.315Z,15.03
2023-04-18T14:40:40.303Z,15.18
2023-04-18T14:43:07.374Z,15.30
2023-04-18T14:45:34.494Z,15.34
2023-04-18T14:48:01.653Z,15.28
2023-04-18T14:50:28.745Z,15.31
2023-04-18T14:52:55.826Z,15.50
2023-04-18T14:55:22.804Z,15.52
2023-04-18T14:57:49.884Z,15.43
2023-04-18T15:00:17.172Z,15.32
2023-04-18T15:02:44.454Z,15.46
2023-04-18T15:05:12.620Z,15.45
2023-04-18T15:07:40.726Z,15.66
2023-04-18T15:10:08.525Z,15.53
2023-04-18T15:12:35.998Z,15.68
2023-04-18T15:15:03.216Z,15.73
2023-04-18T15:17:31.414Z,15.48
2023-04-18T15:20:01.472Z,15.48
2023-04-18T15:22:29.135Z,15.41
2023-04-18T15:24:59.681Z,15.46
2023-04-18T15:27:27.794Z,15.35
2023-04-18T15:29:58.146Z,15.42
2023-04-18T15:32:26.694Z,15.50
2023-04-18T15:34:53.881Z,15.24
2023-04-18T15:41:03.262Z,15.00
2023-04-18T15:43:30.672Z,14.85
2023-04-18T15:45:58.026Z,14.85
2023-04-18T15:48:25.288Z,14.56
2023-04-18T15:50:52.387Z,14.47
2023-04-18T15:53:19.714Z,14.42
2023-04-18T15:55:46.987Z,14.66
2023-04-18T15:58:14.026Z,14.62
2023-04-18T16:00:41.058Z,14.46
2023-04-18T16:03:10.480Z,14.84
2023-04-18T16:05:37.539Z,14.92
2023-04-18T16:08:04.653Z,14.83
2023-04-18T16:10:31.734Z,14.92
2023-04-18T16:12:59.512Z,15.11
2023-04-18T16:15:26.566Z,15.30
2023-04-18T16:17:53.786Z,15.40
2023-04-18T16:20:20.880Z,15.43
2023-04-18T16:22:48.228Z,15.36
2023-04-18T16:25:15.216Z,15.48
2023-04-18T16:27:43.499Z,15.42
2023-04-18T16:30:11.157Z,15.39
2023-04-18T16:32:38.596Z,15.05
2023-04-18T16:35:07.929Z,15.04
2023-04-18T16:37:34.877Z,14.90
2023-04-18T16:40:05.168Z,14.95
2023-04-18T16:42:32.510Z,14.92
2023-04-18T16:45:01.887Z,14.89
2023-04-18T16:47:32.473Z,14.81
2023-04-18T16:49:59.569Z,14.77
2023-04-18T16:52:27.158Z,14.83
2023-04-18T16:54:54.526Z,14.79
2023-04-18T16:57:21.406Z,14.75
2023-04-18T16:59:48.402Z,14.73
2023-04-18T17:02:15.704Z,14.69
2023-04-18T17:04:44.355Z,14.72
2023-04-18T17:07:11.557Z,14.73
2023-04-18T17:09:38.483Z,14.65
2023-04-18T17:12:05.964Z,14.65
2023-04-18T17:14:33.203Z,14.67
2023-04-18T17:17:00.196Z,14.56
2023-04-18T17:19:27.153Z,14.58
2023-04-18T17:21:54.130Z,14.58
2023-04-18T17:24:22.679Z,14.59
2023-04-18T17:26:49.973Z,14.09
2023-04-18T17:29:18.687Z,13.91
2023-04-18T17:31:45.640Z,13.78
2023-04-18T17:34:12.803Z,13.55
2023-04-18T17:36:39.870Z,13.36
2023-04-18T17:39:06.994Z,13.18
2023-04-18T17:41:38.593Z,13.33
2023-04-18T17:44:07.979Z,13.18
2023-04-18T17:46:35.248Z,13.03
2023-04-18T17:49:02.422Z,13.12
2023-04-18T17:51:29.357Z,13.15
2023-04-18T17:53:56.490Z,13.00
2023-04-18T17:56:23.528Z,13.17
2023-04-18T17:58:50.705Z,13.32
2023-04-18T18:01:19.830Z,13.20
2023-04-18T18:03:47.387Z,13.03
2023-04-18T18:06:15.567Z,13.21
2023-04-18T18:08:43.180Z,13.31
2023-04-18T18:11:10.786Z,13.12
2023-04-18T18:13:41.289Z,13.30
2023-04-18T18:16:08.974Z,13.37
2023-04-18T18:18:36.893Z,13.44
2023-04-18T18:21:03.979Z,13.31
2023-04-18T18:23:31.238Z,13.24
2023-04-18T18:25:58.498Z,13.15
2023-04-18T18:28:25.561Z,13.11
2023-04-18T18:30:53.529Z,13.21
2023-04-18T18:33:20.687Z,13.22
2023-04-18T18:35:47.657Z,13.20
2023-04-18T18:38:14.633Z,13.14
2023-04-18T18:40:41.706Z,13.22
2023-04-18T18:43:08.677Z,13.13
2023-04-18T18:45:35.695Z,13.12
2023-04-18T18:48:03.979Z,13.08
2023-04-18T18:50:31.256Z,13.15
2023-04-18T18:52:58.280Z,13.11
2023-04-18T18:55:25.293Z,13.05
2023-04-18T18:57:52.372Z,12.92
2023-04-18T19:00:19.469Z,12.97
2023-04-18T19:02:46.908Z,12.94
2023-04-18T19:05:14.120Z,13.00
2023-04-18T19:07:43.920Z,13.05
2023-04-18T19:10:11.194Z,13.14
2023-04-18T19:12:38.553Z,13.17
2023-04-18T19:15:06.492Z,13.06
2023-04-18T19:17:35.839Z,13.00
2023-04-18T19:20:03.827Z,13.11
2023-04-18T19:22:38.685Z,12.97
2023-04-18T19:25:06.695Z,12.93
2023-04-18T19:27:33.998Z,12.98
2023-04-18T19:30:00.952Z,12.88
2023-04-18T19:32:28.216Z,12.88
2023-04-18T19:34:55.226Z,12.82
2023-04-18T19:37:22.247Z,12.80
2023-04-18T19:39:49.573Z,12.65
2023-04-18T19:42:16.953Z,12.41
2023-04-18T19:44:44.356Z,12.63
2023-04-18T19:47:11.353Z,12.53
2023-04-18T19:49:38.592Z,12.62
2023-04-18T19:52:06.217Z,12.72
2023-04-18T19:54:33.574Z,12.64
2023-04-18T19:57:01.613Z,12.70
2023-04-18T19:59:28.999Z,12.74
2023-04-18T20:01:57.819Z,12.69
2023-04-18T20:04:26.805Z,12.70
2023-04-18T20:06:55.462Z,12.65
2023-04-18T20:09:22.469Z,12.72
2023-04-18T20:11:49.430Z,12.78
2023-04-18T20:14:16.467Z,12.73
2023-04-18T20:16:43.523Z,12.77
2023-04-18T20:19:12.594Z,12.79
2023-04-18T20:21:40.039Z,12.67
2023-04-18T20:24:09.791Z,12.56
2023-04-18T20:26:37.224Z,12.38
2023-04-18T20:29:04.263Z,12.51
2023-04-18T20:31:31.409Z,12.50
2023-04-18T20:33:58.515Z,12.64
2023-04-18T20:36:25.524Z,12.70
2023-04-18T20:38:52.581Z,12.74
2023-04-18T20:41:22.724Z,12.76
2023-04-18T20:43:50.693Z,12.81
2023-04-18T20:46:17.687Z,12.70
2023-04-18T20:48:44.642Z,12.82
2023-04-18T20:51:11.837Z,12.71
2023-04-18T20:53:38.823Z,12.72
2023-04-18T20:56:06.086Z,12.74
2023-04-18T20:58:33.059Z,12.76
2023-04-18T21:01:02.554Z,12.17
2023-04-18T21:03:29.800Z,12.21
2023-04-18T21:05:56.811Z,12.46
2023-04-18T21:08:23.883Z,12.53
2023-04-18T21:10:50.838Z,12.54
2023-04-18T21:13:17.867Z,12.61
2023-04-18T21:15:44.996Z,12.65
2023-04-18T21:18:11.977Z,12.67
2023-04-18T21:20:38.921Z,12.83
2023-04-18T21:23:06.146Z,12.87
2023-04-18T21:25:33.138Z,12.79
2023-04-18T21:28:00.364Z,12.87
2023-04-18T21:30:27.453Z,12.78
2023-04-18T21:32:54.487Z,12.79
2023-04-18T21:35:23.346Z,12.76
2023-04-18T21:37:51.744Z,12.80
2023-04-18T21:40:18.937Z,12.61
2023-04-18T21:42:46.872Z,12.70
2023-04-18T21:45:15.098Z,12.79
2023-04-18T21:47:42.130Z,12.78
2023-04-18T21:50:10.098Z,12.65
2023-04-18T21:52:37.484Z,12.25
2023-04-18T21:55:05.142Z,12.34
2023-04-18T21:57:33.555Z,12.31
2023-04-18T22:00:00.523Z,12.07
2023-04-18T22:02:27.962Z,12.12
2023-04-18T22:04:55.159Z,12.11
2023-04-18T22:07:24.678Z,12.20
2023-04-18T22:09:51.887Z,12.27
2023-04-18T22:12:19.038Z,12.30
2023-04-18T22:14:48.463Z,12.41
2023-04-18T22:17:15.974Z,12.37
2023-04-18T22:19:44.616Z,12.45
2023-04-18T22:22:12.273Z,12.41
2023-04-18T22:24:39.563Z,12.39
2023-04-18T22:27:07.006Z,12.40
2023-04-18T22:29:34.032Z,12.36
2023-04-18T22:32:00.997Z,12.39
2023-04-18T22:34:28.073Z,12.41
2023-04-18T22:36:55.087Z,12.43
2023-04-18T22:39:22.046Z,12.42
2023-04-18T22:41:49.044Z,12.47
2023-04-18T22:44:16.265Z,12.47
2023-04-18T22:46:43.586Z,12.47
2023-04-18T22:49:10.898Z,12.42
2023-04-18T22:51:38.265Z,12.51
2023-04-18T22:54:05.502Z,12.41
2023-04-18T22:56:32.529Z,12.43
2023-04-18T22:58:59.437Z,12.29
2023-04-18T23:01:26.353Z,12.20
2023-04-18T23:03:53.683Z,12.14
2023-04-18T23:06:21.074Z,12.10
2023-04-18T23:08:48.047Z,12.14
2023-04-18T23:11:15.878Z,12.06
2023-04-18T23:13:42.872Z,11.93
2023-04-18T23:16:09.800Z,11.95
2023-04-18T23:18:36.788Z,11.98
2023-04-18T23:21:03.969Z,11.89
2023-04-18T23:23:30.971Z,11.83
2023-04-18T23:25:58.078Z,11.65
2023-04-18T23:28:25.349Z,11.80
2023-04-18T23:30:52.698Z,11.88
2023-04-18T23:33:19.598Z,11.93
2023-04-18T23:35:46.602Z,11.97
2023-04-18T23:38:13.514Z,11.81
2023-04-18T23:40:40.502Z,11.90
2023-04-18T23:43:07.379Z,11.86
2023-04-18T23:45:34.353Z,11.88
2023-04-18T23:48:01.434Z,11.90
2023-04-18T23:50:28.523Z,11.90
2023-04-18T23:52:55.587Z,11.85
2023-04-18T23:55:22.542Z,11.92
2023-04-18T23:57:49.600Z,11.87
